Terminal Aerodrome Forecast
Issued by NWS

Home | Current Version | Previous Version | Text Only | Print | Product List | Glossary On
Versions: 1 2 3 4 5 6 7 8 9 10 11 12 13 14 15 16 17 18 19 20 21 22
890
FTUS46 KMTR 231329 AAA
TAFMRY
TAF AMD
KMRY 231329Z 2313/2412 10003KT P6SM OVC003
      TEMPO 2313/2315 1/2SM FG
     FM231700 29005KT P6SM SCT008
     FM231900 29008KT P6SM SKC
     FM240400 24005KT P6SM BKN005
     FM240600 15003KT P6SM OVC004=

USA.gov is the U.S. government's official web portal to all federal, state and local government web resources and services.